Terminal Aerodrome Forecast
Issued by NWS

Home | Current Version | Previous Version | Text Only | Print | Product List | Glossary On
Versions: 1 2 3 4 5 6 7 8 9 10 11 12 13 14 15 16 17 18
000
FTUS42 KMLB 050536
TAFISM
TAF
KISM 050536Z 0506/0606 00000KT P6SM SCT120 BKN250
     FM051400 17004KT P6SM SCT030 SCT080
     FM051900 14007KT P6SM VCTS SCT040CB BKN080
      TEMPO 0520/0523 3SM TSRA BKN020CB OVC040
     FM060000 12005KT P6SM SCT050 OVC120
      AMD NOT SKED TIL 051200=

USA.gov is the U.S. government's official web portal to all federal, state and local government web resources and services.